Time,TemperatureF,DewpointF,PressureIn,WindDirection,WindDirectionDegrees,WindSpeedMPH,WindSpeedGustMPH,Humidity,HourlyPrecipIn,Conditions,Clouds,dailyrainin,SoftwareType,DateUTC
2015-01-27 00:11:00,50.0,49.0,-100.00,WNW,294,0.0,1.0,98,0.00,,,0.09,,2015-01-27 08:11:00,
2015-01-27 00:22:00,50.0,49.0,-100.00,NW,316,0.0,2.0,98,0.01,,,0.10,,2015-01-27 08:22:00,
2015-01-27 00:42:00,50.0,49.0,-100.00,ENE,64,3.0,4.0,98,0.01,,,0.10,,2015-01-27 08:42:00,
2015-01-27 00:52:00,50.0,49.0,-100.00,ENE,60,3.0,5.0,98,0.01,,,0.10,,2015-01-27 08:52:00,
2015-01-27 01:22:00,50.0,49.0,-100.00,ENE,57,2.0,4.0,98,0.01,,,0.11,,2015-01-27 09:22:00,
2015-01-27 01:44:00,50.0,49.0,-100.00,ENE,58,1.0,2.0,98,0.01,,,0.11,,2015-01-27 09:44:00,
2015-01-27 01:54:00,50.0,49.0,-100.00,ENE,64,2.0,4.0,98,0.01,,,0.11,,2015-01-27 09:54:00,
2015-01-27 02:23:00,50.0,49.0,-100.00,ENE,69,1.0,4.0,98,0.00,,,0.11,,2015-01-27 10:23:00,
2015-01-27 02:43:00,50.0,49.0,-100.00,ENE,70,1.0,3.0,98,0.00,,,0.11,,2015-01-27 10:43:00,
2015-01-27 02:54:00,50.0,49.0,-100.00,ENE,75,0.0,3.0,98,0.00,,,0.11,,2015-01-27 10:54:00,
2015-01-27 03:13:00,50.0,49.0,-100.00,ENE,69,1.0,3.0,98,0.00,,,0.11,,2015-01-27 11:13:00,
2015-01-27 03:23:00,50.0,49.0,-100.00,ENE,69,0.0,3.0,98,0.01,,,0.11,,2015-01-27 11:23:00,
2015-01-27 03:43:00,50.0,49.0,-100.00,ENE,69,1.0,2.0,98,0.01,,,0.11,,2015-01-27 11:43:00,
2015-01-27 03:53:00,50.0,49.0,-100.00,ENE,75,0.0,2.0,98,0.01,,,0.11,,2015-01-27 11:53:00,
2015-01-27 04:22:00,49.0,48.0,-100.00,ENE,66,2.0,4.0,98,0.00,,,0.11,,2015-01-27 12:22:00,
2015-01-27 04:42:00,49.0,48.0,-100.00,ENE,60,0.0,4.0,98,0.00,,,0.11,,2015-01-27 12:42:00,
2015-01-27 04:52:00,49.0,48.0,-100.00,ENE,60,0.0,0.0,98,0.01,,,0.12,,2015-01-27 12:52:00,
2015-01-27 05:22:00,49.0,48.0,-100.00,ENE,60,0.0,0.0,98,0.01,,,0.12,,2015-01-27 13:22:00,
2015-01-27 05:42:00,49.0,48.0,-100.00,ENE,60,0.0,0.0,98,0.01,,,0.12,,2015-01-27 13:42:00,
2015-01-27 05:52:00,48.0,47.0,-100.00,ENE,60,0.0,0.0,98,0.00,,,0.12,,2015-01-27 13:52:00,
2015-01-27 06:22:00,48.0,47.0,-100.00,ENE,60,0.0,0.0,98,0.00,,,0.12,,2015-01-27 14:22:00,
2015-01-27 06:53:00,48.0,47.0,-100.00,ENE,60,0.0,0.0,98,0.01,,,0.13,,2015-01-27 14:53:00,
2015-01-27 07:22:00,48.0,47.0,-100.00,ENE,60,0.0,0.0,98,0.01,,,0.12,,2015-01-27 15:22:00,
2015-01-27 07:44:00,48.0,47.0,-100.00,ENE,60,0.0,1.0,98,0.01,,,0.12,,2015-01-27 15:44:00,
2015-01-27 07:54:00,48.0,47.0,-100.00,ENE,60,0.0,0.0,98,0.00,,,0.12,,2015-01-27 15:54:00,
2015-01-27 08:23:00,48.0,47.0,-100.00,ENE,60,0.0,0.0,98,0.00,,,0.12,,2015-01-27 16:23:00,
2015-01-27 08:43:00,49.0,48.0,-100.00,ENE,60,0.0,0.0,98,0.01,,,0.13,,2015-01-27 16:43:00,
2015-01-27 08:54:00,49.0,49.0,-100.00,ENE,60,0.0,1.0,99,0.01,,,0.13,,2015-01-27 16:54:00,
2015-01-27 09:23:00,50.0,50.0,-100.00,ENE,60,0.0,0.0,99,0.01,,,0.12,,2015-01-27 17:23:00,
2015-01-27 09:53:00,51.0,50.0,-100.00,ENE,71,3.0,5.0,98,0.00,,,0.12,,2015-01-27 17:53:00,
2015-01-27 10:22:00,52.0,51.0,-100.00,ENE,67,0.0,0.0,98,0.00,,,0.12,,2015-01-27 18:22:00,
2015-01-27 10:42:00,53.0,52.0,-100.00,SSW,197,0.0,3.0,97,0.00,,,0.12,,2015-01-27 18:42:00,
2015-01-27 10:54:00,53.0,52.0,-100.00,SW,231,0.0,1.0,95,0.00,,,0.12,,2015-01-27 18:54:00,